Time;durP1;ratioP1;P1;durP2;ratioP2;P2;SDS_P1;SDS_P2;PMS_P1;PMS_P2;Temp;Humidity;BMP_temperature;BMP_pressure;BME280_temperature;BME280_humidity;BME280_pressure;Samples;Min_cycle;Max_cycle;Signal;HPM_P1;HPM_P2
2021/09/22 00:00:19;;;;;;;6.40;3.65;;;11.80;99.90;;;;;;5072646;28;20056;-70
2021/09/22 00:02:45;;;;;;;6.05;3.20;;;11.70;99.90;;;;;;5072372;28;20036;-70
2021/09/22 00:05:13;;;;;;;8.25;3.28;;;11.60;99.90;;;;;;5071104;28;20021;-70
2021/09/22 00:07:39;;;;;;;6.40;3.20;;;11.60;99.90;;;;;;5072222;28;20526;-70
2021/09/22 00:10:13;;;;;;;6.47;3.50;;;11.50;99.90;;;;;;5072628;28;20036;-70
2021/09/22 00:12:39;;;;;;;5.45;3.10;;;11.50;99.90;;;;;;5071024;28;20036;-70
2021/09/22 00:15:09;;;;;;;6.93;3.70;;;11.50;99.90;;;;;;5072233;28;20124;-70
2021/09/22 00:17:35;;;;;;;6.82;3.35;;;11.50;99.90;;;;;;5070534;28;20033;-71
2021/09/22 00:20:02;;;;;;;10.63;3.63;;;11.50;99.90;;;;;;5072131;28;20365;-69
2021/09/22 00:22:27;;;;;;;7.88;3.33;;;11.50;99.90;;;;;;5072311;28;20044;-70
2021/09/22 00:24:53;;;;;;;7.40;3.28;;;11.40;99.90;;;;;;5072025;28;20043;-70
2021/09/22 00:27:19;;;;;;;9.65;3.58;;;11.40;99.90;;;;;;5072194;28;20036;-70
2021/09/22 00:29:45;;;;;;;6.10;3.30;;;11.30;99.90;;;;;;5072338;28;20035;-70
2021/09/22 00:32:11;;;;;;;7.97;3.22;;;11.30;99.90;;;;;;5071216;28;20083;-70
2021/09/22 00:34:37;;;;;;;6.63;3.40;;;11.30;99.90;;;;;;5072179;28;20060;-69
2021/09/22 00:37:06;;;;;;;7.35;3.67;;;11.20;99.90;;;;;;5072388;28;20068;-70
2021/09/22 00:39:35;;;;;;;6.82;3.67;;;11.10;99.90;;;;;;5070807;28;20028;-70
2021/09/22 00:42:05;;;;;;;7.03;3.70;;;11.20;99.90;;;;;;5070952;28;20033;-70
2021/09/22 00:44:45;;;;;;;9.20;4.03;;;11.20;99.90;;;;;;5072237;28;20432;-70
2021/09/22 00:47:14;;;;;;;8.48;3.65;;;11.10;99.90;;;;;;5072285;28;20056;-70
2021/09/22 00:49:40;;;;;;;8.70;3.97;;;11.10;99.90;;;;;;5071828;28;20036;-69
2021/09/22 00:52:05;;;;;;;9.35;3.90;;;11.10;99.90;;;;;;5071884;28;20059;-69
2021/09/22 00:54:31;;;;;;;9.38;3.67;;;10.90;99.90;;;;;;5071825;28;20028;-69
2021/09/22 00:56:57;;;;;;;9.18;3.55;;;10.80;99.90;;;;;;5071826;28;20089;-69
2021/09/22 00:59:23;;;;;;;9.32;4.03;;;10.70;99.90;;;;;;5070577;28;20420;-69
2021/09/22 01:01:50;;;;;;;7.60;4.25;;;10.60;99.90;;;;;;5070348;28;20037;-69
2021/09/22 01:04:17;;;;;;;6.53;3.90;;;10.60;99.90;;;;;;5072006;28;20039;-69
2021/09/22 01:06:43;;;;;;;8.75;4.07;;;10.60;99.90;;;;;;5053732;28;20587;-69
2021/09/22 01:09:09;;;;;;;10.07;4.30;;;10.70;99.90;;;;;;5071770;28;20109;-69
2021/09/22 01:11:35;;;;;;;6.90;4.30;;;10.70;99.90;;;;;;5071953;28;20021;-69
2021/09/22 01:14:02;;;;;;;8.63;4.18;;;10.80;99.90;;;;;;5071587;28;20040;-69
2021/09/22 01:16:28;;;;;;;8.70;4.20;;;10.70;99.90;;;;;;5071433;28;20045;-68
2021/09/22 01:18:53;;;;;;;9.82;4.97;;;10.90;99.90;;;;;;5071895;28;20393;-69
2021/09/22 01:21:21;;;;;;;8.18;4.07;;;10.90;99.90;;;;;;5071521;28;20461;-69
2021/09/22 01:23:47;;;;;;;7.43;3.97;;;11.00;99.90;;;;;;5071368;28;20033;-69
2021/09/22 01:26:13;;;;;;;7.15;4.32;;;11.00;99.90;;;;;;5071856;28;20108;-69
2021/09/22 01:28:39;;;;;;;7.18;4.07;;;11.00;99.90;;;;;;5071868;28;20094;-69
2021/09/22 01:31:05;;;;;;;8.45;4.20;;;11.10;99.90;;;;;;5074984;28;20037;-69
2021/09/22 01:33:31;;;;;;;7.38;4.05;;;11.10;99.90;;;;;;5074052;28;20046;-69
2021/09/22 01:35:57;;;;;;;8.55;4.15;;;11.10;99.90;;;;;;5075154;28;20020;-69
2021/09/22 01:38:28;;;;;;;10.18;4.40;;;11.10;99.90;;;;;;5075333;28;20039;-69
2021/09/22 01:41:04;;;;;;;8.05;4.40;;;11.10;99.90;;;;;;5073707;28;20094;-69
2021/09/22 01:43:31;;;;;;;9.13;3.83;;;11.10;99.90;;;;;;5073745;28;20044;-69
2021/09/22 01:45:59;;;;;;;11.48;4.57;;;11.10;99.90;;;;;;5075042;28;20094;-69
2021/09/22 01:48:26;;;;;;;7.80;4.00;;;11.10;99.90;;;;;;5073695;28;20029;-69
2021/09/22 01:50:53;;;;;;;11.38;4.47;;;11.10;99.90;;;;;;5073477;28;20132;-69
2021/09/22 01:53:19;;;;;;;8.75;4.30;;;11.10;99.90;;;;;;5075083;28;20059;-69
2021/09/22 01:55:45;;;;;;;6.80;4.15;;;11.10;99.90;;;;;;5073580;28;20032;-69
2021/09/22 01:58:12;;;;;;;9.70;5.18;;;11.00;99.90;;;;;;5073836;28;20036;-69
2021/09/22 02:00:38;;;;;;;11.27;4.38;;;10.90;99.90;;;;;;5074617;28;20033;-69
2021/09/22 02:03:04;;;;;;;8.45;4.35;;;10.90;99.90;;;;;;5074474;28;20504;-69
2021/09/22 02:05:30;;;;;;;9.13;5.13;;;11.00;99.90;;;;;;5074473;28;20025;-69
2021/09/22 02:07:56;;;;;;;9.40;4.78;;;11.00;99.90;;;;;;5074538;28;20033;-69
2021/09/22 02:10:22;;;;;;;11.35;4.75;;;10.90;99.90;;;;;;5073461;28;20024;-69
2021/09/22 02:12:48;;;;;;;8.13;4.68;;;10.90;99.90;;;;;;5074413;28;20056;-70
2021/09/22 02:15:14;;;;;;;8.32;4.45;;;10.80;99.90;;;;;;5072995;28;20405;-69
2021/09/22 02:17:39;;;;;;;7.70;4.70;;;10.80;99.90;;;;;;5074413;28;20036;-70
2021/09/22 02:20:07;;;;;;;7.78;3.92;;;10.90;99.90;;;;;;5074583;28;20055;-69
2021/09/22 02:22:34;;;;;;;6.60;4.28;;;10.80;99.90;;;;;;5073244;28;20473;-69
2021/09/22 02:25:00;;;;;;;6.60;3.95;;;10.80;99.90;;;;;;5072991;28;20039;-69
2021/09/22 02:27:25;;;;;;;6.95;4.10;;;10.80;99.90;;;;;;5074196;28;20108;-69
2021/09/22 02:29:51;;;;;;;8.15;4.78;;;10.70;99.90;;;;;;5074103;28;20058;-69
2021/09/22 02:32:17;;;;;;;9.65;4.97;;;10.80;99.90;;;;;;5074110;28;20116;-69
2021/09/22 02:34:44;;;;;;;6.68;4.28;;;10.60;99.90;;;;;;5074180;28;20062;-69
2021/09/22 02:37:10;;;;;;;8.90;4.35;;;10.50;99.90;;;;;;5074267;28;20032;-69
2021/09/22 02:39:36;;;;;;;11.50;4.90;;;10.70;99.90;;;;;;5072817;28;20036;-69
2021/09/22 02:42:02;;;;;;;8.15;4.43;;;10.50;99.90;;;;;;5073561;28;20025;-69
2021/09/22 02:44:28;;;;;;;9.55;5.28;;;10.60;99.90;;;;;;5074146;28;20381;-70
2021/09/22 02:46:54;;;;;;;8.60;4.32;;;10.60;99.90;;;;;;5073544;28;20027;-69
2021/09/22 02:49:20;;;;;;;8.45;4.65;;;10.70;99.90;;;;;;5074100;28;20040;-70
2021/09/22 02:51:47;;;;;;;8.00;4.03;;;10.70;99.90;;;;;;5073678;28;20165;-69
2021/09/22 02:54:13;;;;;;;9.93;4.00;;;10.70;99.90;;;;;;5072992;28;20397;-69
2021/09/22 02:56:39;;;;;;;8.60;4.40;;;10.60;99.90;;;;;;5075315;28;20050;-70
2021/09/22 02:59:05;;;;;;;7.82;4.88;;;10.60;99.90;;;;;;5075734;28;20371;-69
2021/09/22 03:01:32;;;;;;;7.60;4.70;;;10.70;99.90;;;;;;5073560;28;20033;-70
2021/09/22 03:03:57;;;;;;;10.25;5.05;;;10.60;99.90;;;;;;5074017;28;20469;-70
2021/09/22 03:06:24;;;;;;;10.50;4.07;;;10.60;99.90;;;;;;5073082;28;20123;-71
2021/09/22 03:08:50;;;;;;;7.65;4.38;;;10.50;99.90;;;;;;5074380;28;20124;-71
2021/09/22 03:11:16;;;;;;;10.77;4.82;;;10.50;99.90;;;;;;5073750;28;20032;-69
2021/09/22 03:13:42;;;;;;;10.70;4.20;;;10.20;99.90;;;;;;5073567;28;20048;-70
2021/09/22 03:16:08;;;;;;;7.70;4.32;;;10.10;99.90;;;;;;5073106;28;20036;-70
2021/09/22 03:18:34;;;;;;;8.93;5.18;;;9.80;99.90;;;;;;5073438;28;20028;-70
2021/09/22 03:21:00;;;;;;;10.02;5.95;;;9.70;99.90;;;;;;5073342;28;20107;-70
2021/09/22 03:23:26;;;;;;;10.18;5.07;;;9.80;99.90;;;;;;5073265;28;20564;-71
2021/09/22 03:25:52;;;;;;;8.20;4.45;;;9.80;99.90;;;;;;5073175;28;20124;-70
2021/09/22 03:28:19;;;;;;;8.05;4.25;;;10.00;99.90;;;;;;5072999;28;20035;-70
2021/09/22 03:30:45;;;;;;;7.90;4.85;;;9.90;99.90;;;;;;5072042;28;20458;-70
2021/09/22 03:33:11;;;;;;;8.98;4.53;;;10.10;99.90;;;;;;5072939;28;20119;-69
2021/09/22 03:35:37;;;;;;;8.57;4.68;;;10.00;99.90;;;;;;5073120;28;20123;-70
2021/09/22 03:38:04;;;;;;;9.43;5.53;;;10.10;99.90;;;;;;5072553;28;20029;-71
2021/09/22 03:40:30;;;;;;;10.77;5.05;;;10.20;99.90;;;;;;5055184;28;20059;-70
2021/09/22 03:42:56;;;;;;;10.32;4.75;;;10.20;99.90;;;;;;5072426;28;20636;-71
2021/09/22 03:45:23;;;;;;;7.88;4.53;;;10.20;99.90;;;;;;5071699;28;20611;-71
2021/09/22 03:47:49;;;;;;;10.45;4.97;;;10.20;99.90;;;;;;5071291;28;20036;-70
2021/09/22 03:50:16;;;;;;;9.95;4.78;;;10.20;99.90;;;;;;5072887;28;20381;-70
2021/09/22 03:52:41;;;;;;;8.75;5.25;;;10.20;99.90;;;;;;5071742;28;20040;-70
2021/09/22 03:55:08;;;;;;;10.23;5.25;;;10.20;99.90;;;;;;5072221;28;20082;-69
2021/09/22 03:57:34;;;;;;;9.13;4.53;;;10.20;99.90;;;;;;5072494;28;20038;-69
2021/09/22 04:00:00;;;;;;;7.38;4.55;;;10.20;99.90;;;;;;5074907;28;20415;-70
2021/09/22 04:02:26;;;;;;;9.02;5.07;;;10.00;99.90;;;;;;5089038;28;20078;-70
2021/09/22 04:04:51;;;;;;;9.35;5.20;;;10.00;99.90;;;;;;5092649;28;20663;-70
2021/09/22 04:07:17;;;;;;;10.65;5.40;;;9.90;99.90;;;;;;5092453;28;20043;-71
2021/09/22 04:09:43;;;;;;;7.70;4.75;;;10.00;99.90;;;;;;5083956;28;20107;-71
2021/09/22 04:12:09;;;;;;;11.02;4.82;;;9.90;99.90;;;;;;5092403;28;20035;-71
2021/09/22 04:14:34;;;;;;;7.85;4.68;;;9.90;99.90;;;;;;5092622;28;20077;-69
2021/09/22 04:17:00;;;;;;;7.45;4.70;;;10.00;99.90;;;;;;5090942;28;20496;-71
2021/09/22 04:19:26;;;;;;;7.97;4.68;;;9.80;99.90;;;;;;5075914;28;20439;-73
2021/09/22 04:21:52;;;;;;;9.55;4.72;;;9.80;99.90;;;;;;5092172;28;20473;-71
2021/09/22 04:24:18;;;;;;;8.68;4.90;;;9.70;99.90;;;;;;5092243;28;20677;-70
2021/09/22 04:26:44;;;;;;;9.23;5.10;;;9.70;99.90;;;;;;5074313;28;20577;-71
2021/09/22 04:29:10;;;;;;;12.38;5.03;;;9.80;99.90;;;;;;5092292;28;20036;-71
2021/09/22 04:31:37;;;;;;;10.02;5.00;;;9.90;99.90;;;;;;5072278;28;20033;-71
2021/09/22 04:34:04;;;;;;;10.98;4.82;;;10.00;99.90;;;;;;5071029;28;20104;-71
2021/09/22 04:36:30;;;;;;;8.85;4.40;;;10.00;99.90;;;;;;5071066;28;20112;-71
2021/09/22 04:38:55;;;;;;;11.00;4.72;;;10.00;99.90;;;;;;5087742;28;20120;-71
2021/09/22 04:41:22;;;;;;;8.52;4.35;;;9.60;99.90;;;;;;5072003;28;20079;-71
2021/09/22 04:43:47;;;;;;;9.85;4.97;;;9.20;99.90;;;;;;5070531;28;20028;-72
2021/09/22 04:46:15;;;;;;;12.63;5.57;;;9.10;99.90;;;;;;5070445;28;20115;-72
2021/09/22 04:48:41;;;;;;;10.63;5.03;;;9.10;99.90;;;;;;5072031;28;20044;-73
2021/09/22 04:51:08;;;;;;;12.02;5.00;;;9.00;99.90;;;;;;5072003;28;20051;-72
2021/09/22 04:53:34;;;;;;;13.63;5.35;;;9.10;99.90;;;;;;5054128;28;20119;-72
2021/09/22 04:56:01;;;;;;;8.48;4.38;;;9.30;99.90;;;;;;5071770;28;20036;-72
2021/09/22 04:58:27;;;;;;;11.25;6.05;;;9.20;99.90;;;;;;5070860;28;20465;-73
2021/09/22 05:00:53;;;;;;;8.40;4.60;;;9.10;99.90;;;;;;5071651;28;20029;-71
2021/09/22 05:03:18;;;;;;;10.93;4.18;;;9.10;99.90;;;;;;5071922;28;20033;-71
2021/09/22 05:05:45;;;;;;;11.95;5.18;;;9.30;99.90;;;;;;5075627;28;20033;-72
2021/09/22 05:08:11;;;;;;;12.98;4.95;;;9.40;99.90;;;;;;5075574;28;20025;-72
2021/09/22 05:10:37;;;;;;;8.25;4.47;;;9.40;99.90;;;;;;5074884;28;20038;-71
2021/09/22 05:13:03;;;;;;;10.48;5.22;;;9.50;99.90;;;;;;5075680;28;20116;-72
2021/09/22 05:15:29;;;;;;;10.65;4.82;;;9.40;99.90;;;;;;5075381;28;20136;-72
2021/09/22 05:17:55;;;;;;;11.45;5.15;;;9.50;99.90;;;;;;5073497;27;20028;-71
2021/09/22 05:20:22;;;;;;;8.38;4.90;;;9.20;99.90;;;;;;5075530;28;20024;-72
2021/09/22 05:22:47;;;;;;;40.13;22.95;;;9.30;99.90;;;;;;5075257;28;20036;-72
2021/09/22 05:25:13;;;;;;;39.78;20.50;;;9.40;99.90;;;;;;5080519;28;20146;-73
2021/09/22 05:27:39;;;;;;;11.85;5.32;;;9.50;99.90;;;;;;5075839;28;20389;-72
2021/09/22 05:30:06;;;;;;;9.82;5.05;;;9.30;99.90;;;;;;5082609;28;20025;-71
2021/09/22 05:32:32;;;;;;;8.73;4.80;;;9.50;99.90;;;;;;5094726;28;20034;-73
2021/09/22 05:34:58;;;;;;;10.40;5.13;;;9.40;99.90;;;;;;5093965;28;20111;-73
2021/09/22 05:37:26;;;;;;;12.07;5.65;;;9.30;99.90;;;;;;5093797;28;20468;-72
2021/09/22 05:39:52;;;;;;;14.02;6.15;;;9.20;99.90;;;;;;5094045;28;20549;-71
2021/09/22 05:42:18;;;;;;;12.15;5.55;;;9.30;99.90;;;;;;5069939;28;20041;-70
2021/09/22 05:44:44;;;;;;;10.82;5.35;;;9.20;99.90;;;;;;5092220;28;20055;-71
2021/09/22 05:47:10;;;;;;;10.13;5.25;;;9.40;99.90;;;;;;5094008;28;20075;-71
2021/09/22 05:49:35;;;;;;;9.00;5.68;;;9.30;99.90;;;;;;5094728;28;20040;-71
2021/09/22 05:52:01;;;;;;;35.70;19.70;;;9.30;99.90;;;;;;5084711;28;20036;-71
2021/09/22 05:54:27;;;;;;;13.48;6.57;;;9.40;99.90;;;;;;5094676;28;20032;-70
2021/09/22 05:56:53;;;;;;;10.82;5.70;;;9.20;99.90;;;;;;5094711;28;20067;-70
2021/09/22 05:59:19;;;;;;;42.50;20.88;;;9.10;99.90;;;;;;5093336;28;20069;-71
2021/09/22 06:01:44;;;;;;;73.78;41.50;;;9.20;99.90;;;;;;5093320;28;20055;-71
2021/09/22 06:04:10;;;;;;;12.90;6.80;;;9.40;99.90;;;;;;5094676;28;20438;-71
2021/09/22 06:06:36;;;;;;;50.22;28.75;;;9.50;99.90;;;;;;5094874;28;20462;-71
2021/09/22 06:09:02;;;;;;;27.08;15.68;;;9.70;99.90;;;;;;5092882;28;20625;-71
2021/09/22 06:11:27;;;;;;;15.70;5.38;;;9.80;99.90;;;;;;5093287;28;20058;-71
2021/09/22 06:13:53;;;;;;;18.88;6.65;;;9.90;99.90;;;;;;5094697;28;20112;-72
2021/09/22 06:16:25;;;;;;;12.52;5.68;;;10.00;99.90;;;;;;5092273;28;20048;-71
2021/09/22 06:18:51;;;;;;;14.32;5.57;;;9.80;99.90;;;;;;5083616;28;20031;-72
2021/09/22 06:21:18;;;;;;;18.60;5.85;;;9.90;99.90;;;;;;5073712;28;20119;-72
2021/09/22 06:23:44;;;;;;;13.93;5.28;;;10.00;99.90;;;;;;5074102;28;20512;-71
2021/09/22 06:26:10;;;;;;;16.60;4.97;;;10.00;99.90;;;;;;5073999;28;20037;-71
2021/09/22 06:28:35;;;;;;;11.45;5.90;;;10.10;99.90;;;;;;5074363;28;20033;-71
2021/09/22 06:31:03;;;;;;;9.35;5.28;;;10.00;99.90;;;;;;5074046;28;20033;-72
2021/09/22 06:33:29;;;;;;;11.93;5.85;;;10.00;99.90;;;;;;5074340;28;20029;-73
2021/09/22 06:35:59;;;;;;;11.10;5.18;;;10.00;99.90;;;;;;5074197;28;20032;-72
2021/09/22 06:38:27;;;;;;;12.68;5.72;;;10.20;99.90;;;;;;5072804;28;20067;-71
2021/09/22 06:40:54;;;;;;;13.68;5.03;;;10.30;99.90;;;;;;5074212;28;20028;-71
2021/09/22 06:43:19;;;;;;;15.38;6.30;;;10.40;99.90;;;;;;5074005;28;20384;-72
2021/09/22 06:45:45;;;;;;;12.73;5.00;;;10.60;99.90;;;;;;5073771;28;20032;-71
2021/09/22 06:48:11;;;;;;;9.13;5.03;;;10.60;99.90;;;;;;5073910;28;20397;-71
2021/09/22 06:50:37;;;;;;;12.10;5.32;;;10.50;99.90;;;;;;5073782;28;20537;-72
2021/09/22 06:53:03;;;;;;;14.18;4.97;;;10.70;99.90;;;;;;5073730;28;20037;-72
2021/09/22 06:55:29;;;;;;;11.68;5.18;;;10.90;99.90;;;;;;5073879;28;20063;-72
2021/09/22 06:57:55;;;;;;;7.30;4.70;;;10.90;99.90;;;;;;5073546;28;20396;-71
2021/09/22 07:00:21;;;;;;;10.80;4.90;;;10.90;99.90;;;;;;5073506;28;20028;-70
2021/09/22 07:02:47;;;;;;;12.45;4.72;;;10.90;99.90;;;;;;5073646;28;20059;-71
2021/09/22 07:05:14;;;;;;;11.82;5.32;;;10.90;99.90;;;;;;5073350;28;20466;-71
2021/09/22 07:07:45;;;;;;;14.80;5.60;;;10.90;99.90;;;;;;5072253;28;20041;-71
2021/09/22 07:10:13;;;;;;;11.35;4.85;;;10.80;99.90;;;;;;5073138;28;20481;-71
2021/09/22 07:12:39;;;;;;;10.68;5.28;;;10.90;99.90;;;;;;5073527;28;20044;-71
2021/09/22 07:15:05;;;;;;;12.48;5.47;;;10.90;99.90;;;;;;5073090;28;20031;-71
2021/09/22 07:17:31;;;;;;;9.57;4.85;;;10.90;99.90;;;;;;5073030;28;20098;-71
2021/09/22 07:19:56;;;;;;;9.18;5.38;;;11.10;99.90;;;;;;5073159;28;20045;-71
2021/09/22 07:22:22;;;;;;;10.23;4.85;;;11.10;99.90;;;;;;5073288;28;20041;-71
2021/09/22 07:24:49;;;;;;;111.68;63.83;;;11.20;99.90;;;;;;5072829;28;20086;-71
2021/09/22 07:27:16;;;;;;;69.05;34.50;;;11.40;99.90;;;;;;5072740;28;20465;-71
2021/09/22 07:29:42;;;;;;;20.00;5.82;;;11.50;99.90;;;;;;5073267;28;20032;-71
2021/09/22 07:32:08;;;;;;;10.10;5.25;;;11.40;99.90;;;;;;5073004;28;20020;-71
2021/09/22 07:34:35;;;;;;;24.90;11.30;;;11.50;99.90;;;;;;5073121;28;20055;-71
2021/09/22 07:37:07;;;;;;;10.93;5.70;;;11.80;99.90;;;;;;5072811;28;20024;-71
2021/09/22 07:39:35;;;;;;;8.57;4.50;;;11.90;99.90;;;;;;5073104;28;20538;-71
2021/09/22 07:42:02;;;;;;;9.18;4.38;;;11.90;99.90;;;;;;5072869;28;20359;-71
2021/09/22 07:44:27;;;;;;;6.80;4.13;;;12.00;99.90;;;;;;5072968;28;20047;-74
2021/09/22 07:46:53;;;;;;;6.55;3.78;;;11.90;99.90;;;;;;5072468;28;20028;-70
2021/09/22 07:49:19;;;;;;;9.75;4.70;;;12.20;99.90;;;;;;5088024;28;20492;-70
2021/09/22 07:51:45;;;;;;;11.52;3.88;;;12.20;99.90;;;;;;5072796;28;20059;-69
2021/09/22 07:54:10;;;;;;;14.63;4.50;;;12.30;99.90;;;;;;5072309;28;20044;-70
2021/09/22 07:56:36;;;;;;;11.73;4.53;;;12.40;99.90;;;;;;5072504;28;20044;-69
2021/09/22 07:59:02;;;;;;;8.13;3.95;;;12.40;99.90;;;;;;5072481;28;20033;-70
2021/09/22 08:01:28;;;;;;;21.70;5.20;;;12.30;99.90;;;;;;5072199;28;20028;-69
2021/09/22 08:03:54;;;;;;;10.35;4.93;;;12.20;99.90;;;;;;5071210;28;20058;-69
2021/09/22 08:06:19;;;;;;;10.40;4.03;;;12.50;99.90;;;;;;5072366;28;20029;-70
2021/09/22 08:08:45;;;;;;;10.48;4.18;;;12.60;99.90;;;;;;5075117;28;20102;-69
2021/09/22 08:11:11;;;;;;;8.45;3.92;;;12.70;99.90;;;;;;5071977;28;20024;-70
2021/09/22 08:13:39;;;;;;;10.48;4.22;;;13.00;99.90;;;;;;5072153;28;20029;-69
2021/09/22 08:16:05;;;;;;;10.15;4.65;;;12.80;99.90;;;;;;5071859;28;20432;-69
2021/09/22 08:18:34;;;;;;;12.30;4.47;;;13.00;99.90;;;;;;5075053;28;20111;-70
2021/09/22 08:21:00;;;;;;;7.15;4.18;;;13.00;99.90;;;;;;5072027;28;20033;-69
2021/09/22 08:23:25;;;;;;;7.38;3.80;;;13.10;99.90;;;;;;5072255;28;20443;-69
2021/09/22 08:25:51;;;;;;;8.05;3.97;;;13.30;99.90;;;;;;5072495;28;20024;-69
2021/09/22 08:28:17;;;;;;;6.95;4.13;;;13.60;99.90;;;;;;5072034;28;20073;-69
2021/09/22 08:30:44;;;;;;;5.25;3.38;;;13.80;99.90;;;;;;5071999;28;20032;-69
2021/09/22 08:33:10;;;;;;;11.10;4.28;;;14.00;99.90;;;;;;5072138;28;20036;-70
2021/09/22 08:35:36;;;;;;;6.78;3.90;;;14.00;99.90;;;;;;5072109;28;20020;-70
2021/09/22 08:38:02;;;;;;;7.55;3.92;;;14.40;99.90;;;;;;5071550;28;20032;-70
2021/09/22 08:40:31;;;;;;;6.55;3.63;;;14.20;99.90;;;;;;5078799;28;20068;-69
2021/09/22 08:42:58;;;;;;;8.75;3.47;;;14.30;99.90;;;;;;5078500;28;20041;-70
2021/09/22 08:45:25;;;;;;;6.47;3.45;;;14.60;99.90;;;;;;5077380;28;20395;-70
2021/09/22 08:47:51;;;;;;;8.77;4.07;;;14.60;99.90;;;;;;5077380;28;20032;-70
2021/09/22 08:50:19;;;;;;;7.13;3.78;;;14.60;99.90;;;;;;5077455;28;20043;-70
2021/09/22 08:52:46;;;;;;;5.60;3.50;;;14.50;99.90;;;;;;5078567;28;20039;-69
2021/09/22 08:55:13;;;;;;;7.15;3.22;;;14.70;99.90;;;;;;5078136;28;20163;-70
2021/09/22 08:57:39;;;;;;;7.97;4.85;;;15.10;99.90;;;;;;5078513;28;20062;-70
2021/09/22 09:00:09;;;;;;;10.23;5.80;;;15.20;99.90;;;;;;5078435;28;20028;-70
2021/09/22 09:02:47;;;;;;;8.52;4.30;;;15.20;99.90;;;;;;5078556;28;20487;-69
2021/09/22 09:05:18;;;;;;;9.40;3.70;;;15.20;99.90;;;;;;5078337;28;20032;-70
2021/09/22 09:08:01;;;;;;;9.23;4.78;;;15.20;99.90;;;;;;5078754;28;20035;-70
2021/09/22 09:10:35;;;;;;;6.70;3.67;;;15.20;99.90;;;;;;5078143;28;20045;-69
2021/09/22 09:13:09;;;;;;;8.38;4.10;;;15.20;99.90;;;;;;5077154;28;20025;-69
2021/09/22 09:15:44;;;;;;;8.32;3.50;;;15.20;99.90;;;;;;5078342;28;20154;-70
2021/09/22 09:18:28;;;;;;;8.98;3.40;;;15.60;99.90;;;;;;5078104;28;20052;-70
2021/09/22 09:20:55;;;;;;;11.70;3.75;;;15.90;99.90;;;;;;5078424;28;20031;-69
2021/09/22 09:23:23;;;;;;;7.45;3.83;;;16.10;99.90;;;;;;5078189;28;20119;-69
2021/09/22 09:26:00;;;;;;;10.25;3.50;;;16.20;99.90;;;;;;5078257;28;20029;-69
2021/09/22 09:28:37;;;;;;;7.28;4.35;;;16.10;99.90;;;;;;5078209;28;20080;-69
2021/09/22 09:31:12;;;;;;;7.65;3.35;;;16.20;99.90;;;;;;5078143;28;20032;-69
2021/09/22 09:33:38;;;;;;;6.53;3.17;;;16.40;99.90;;;;;;5078036;28;20493;-69
2021/09/22 09:36:35;;;;;;;8.50;3.60;;;16.50;99.90;;;;;;5078413;28;20043;-70
2021/09/22 09:39:25;;;;;;;6.00;3.55;;;16.50;99.90;;;;;;5078401;28;20170;-69
2021/09/22 09:41:57;;;;;;;10.70;3.83;;;16.80;99.90;;;;;;5078136;28;20029;-70
2021/09/22 09:44:31;;;;;;;11.73;3.47;;;17.00;99.90;;;;;;5075701;28;20075;-69
2021/09/22 09:47:10;;;;;;;9.75;4.07;;;16.80;99.90;;;;;;5077904;28;20071;-69
2021/09/22 09:49:37;;;;;;;6.25;3.33;;;16.80;99.90;;;;;;5076660;28;20519;-70
2021/09/22 09:52:04;;;;;;;10.38;4.32;;;16.90;99.90;;;;;;5074168;28;20482;-69
2021/09/22 09:54:33;;;;;;;6.95;2.95;;;17.20;99.90;;;;;;5074738;28;20115;-72
2021/09/22 09:57:14;;;;;;;12.50;3.67;;;17.40;99.90;;;;;;5074542;28;20028;-71
2021/09/22 09:59:52;;;;;;;7.68;3.60;;;17.40;99.90;;;;;;5073594;28;20028;-71
2021/09/22 10:02:33;;;;;;;16.50;5.07;;;17.00;99.90;;;;;;5074048;28;20094;-74
2021/09/22 10:05:01;;;;;;;9.07;3.47;;;17.20;99.90;;;;;;5078103;28;20028;-74
2021/09/22 10:07:29;;;;;;;7.00;2.75;;;17.50;99.90;;;;;;5094846;28;20036;-76
2021/09/22 10:09:56;;;;;;;5.47;3.15;;;18.00;98.90;;;;;;5094750;28;20032;-74
2021/09/22 10:12:22;;;;;;;6.75;3.03;;;18.00;98.90;;;;;;5094554;28;20036;-74
2021/09/22 10:14:49;;;;;;;9.63;2.80;;;17.70;99.00;;;;;;5094637;28;20107;-68
2021/09/22 10:17:16;;;;;;;5.55;2.63;;;17.90;98.50;;;;;;5092907;28;20500;-72
2021/09/22 10:19:47;;;;;;;6.40;2.97;;;18.30;98.30;;;;;;5094662;28;20051;-77
2021/09/22 10:22:13;;;;;;;5.07;3.22;;;18.20;98.70;;;;;;5091017;28;20388;-76
2021/09/22 10:24:42;;;;;;;4.00;2.53;;;18.50;99.50;;;;;;5094542;28;20059;-76
2021/09/22 10:27:16;;;;;;;6.05;2.10;;;18.40;98.00;;;;;;5093179;28;20473;-76
2021/09/22 10:30:05;;;;;;;12.18;3.65;;;18.50;97.60;;;;;;5094560;28;20028;-75
2021/09/22 10:32:41;;;;;;;4.85;2.45;;;18.50;98.50;;;;;;5094232;28;20032;-75
2021/09/22 10:35:25;;;;;;;8.30;2.45;;;18.50;98.20;;;;;;5094319;28;20063;-75
2021/09/22 10:37:53;;;;;;;10.93;3.90;;;18.90;99.20;;;;;;5094331;28;20480;-75
2021/09/22 10:40:34;;;;;;;7.60;2.75;;;19.30;98.40;;;;;;5093909;28;20493;-75
2021/09/22 10:43:15;;;;;;;5.13;2.70;;;19.20;96.80;;;;;;5092745;28;20039;-75
2021/09/22 10:45:42;;;;;;;7.28;3.50;;;19.40;96.40;;;;;;5093975;28;20046;-75
2021/09/22 10:48:24;;;;;;;6.88;2.80;;;19.00;96.90;;;;;;5094187;28;20043;-75
2021/09/22 10:50:55;;;;;;;8.68;3.10;;;19.10;97.10;;;;;;5093960;28;20392;-75
2021/09/22 10:53:30;;;;;;;6.68;3.00;;;19.30;96.80;;;;;;5093752;28;20036;-75
2021/09/22 10:56:16;;;;;;;8.35;2.53;;;20.00;96.00;;;;;;5093963;28;20400;-75
2021/09/22 10:58:55;;;;;;;5.05;2.55;;;20.10;96.40;;;;;;5093395;28;20484;-75
2021/09/22 11:01:36;;;;;;;6.88;2.20;;;20.40;96.10;;;;;;5093482;28;20555;-74
2021/09/22 11:04:07;;;;;;;4.55;1.80;;;20.10;95.70;;;;;;5093521;28;20089;-74
2021/09/22 11:06:47;;;;;;;7.05;2.30;;;20.40;96.10;;;;;;5093408;28;20035;-75
2021/09/22 11:09:25;;;;;;;8.52;4.93;;;20.70;95.70;;;;;;5093272;28;20396;-75
2021/09/22 11:11:54;;;;;;;7.95;4.20;;;20.50;95.50;;;;;;5093512;28;20064;-75
2021/09/22 11:14:39;;;;;;;5.65;2.22;;;20.70;94.50;;;;;;5093215;28;20520;-75
2021/09/22 11:17:25;;;;;;;7.03;2.05;;;20.20;94.90;;;;;;5093310;28;20514;-75
2021/09/22 11:19:58;;;;;;;5.15;2.17;;;20.40;95.30;;;;;;5091944;28;20035;-75
2021/09/22 11:22:31;;;;;;;6.43;2.35;;;20.40;95.10;;;;;;5092253;28;20154;-75
2021/09/22 11:25:04;;;;;;;8.07;2.35;;;20.70;95.20;;;;;;5093612;28;20043;-74
2021/09/22 11:27:31;;;;;;;7.90;2.22;;;20.90;94.40;;;;;;5091796;28;20119;-74
2021/09/22 11:30:02;;;;;;;4.50;2.30;;;20.50;95.30;;;;;;5091832;28;20032;-74
2021/09/22 11:32:43;;;;;;;3.58;1.77;;;20.90;95.30;;;;;;5093066;28;20621;-74
2021/09/22 11:35:10;;;;;;;;;;;21.20;94.30;;;;;;5093428;28;20092;-74
2021/09/22 11:37:39;;;;;;;5.00;2.40;;;20.70;95.30;;;;;;5092578;28;20300;-74
2021/09/22 11:40:32;;;;;;;5.57;1.90;;;20.80;94.60;;;;;;5092783;28;20105;-75
2021/09/22 11:43:11;;;;;;;8.20;2.03;;;20.60;94.70;;;;;;5092576;28;20404;-74
2021/09/22 11:45:44;;;;;;;7.50;2.25;;;21.10;94.50;;;;;;5091707;28;20114;-74
2021/09/22 11:48:13;;;;;;;6.80;1.80;;;21.60;93.70;;;;;;5092643;28;20042;-74
2021/09/22 11:50:43;;;;;;;8.35;4.53;;;22.50;93.50;;;;;;5092491;28;20024;-74
2021/09/22 11:53:12;;;;;;;3.50;1.73;;;23.20;92.10;;;;;;5093040;28;20032;-73
2021/09/22 11:55:40;;;;;;;5.10;2.15;;;24.20;90.80;;;;;;5091304;28;20032;-72
2021/09/22 11:58:20;;;;;;;5.70;2.03;;;24.30;90.50;;;;;;5091517;28;20161;-72
2021/09/22 12:00:51;;;;;;;6.37;1.80;;;25.10;89.20;;;;;;5092892;28;20066;-72
2021/09/22 12:03:22;;;;;;;5.10;1.88;;;26.70;84.80;;;;;;5091131;28;20392;-73
2021/09/22 12:06:06;;;;;;;3.25;1.55;;;23.80;84.70;;;;;;5091311;28;20032;-73
2021/09/22 12:08:35;;;;;;;5.53;2.17;;;23.00;89.40;;;;;;5072659;28;20111;-72
2021/09/22 12:11:02;;;;;;;4.65;2.03;;;23.50;88.20;;;;;;5071056;28;20037;-73
2021/09/22 12:13:28;;;;;;;3.67;1.88;;;24.30;87.00;;;;;;5070465;28;20059;-72
2021/09/22 12:15:58;;;;;;;4.28;1.67;;;25.20;84.10;;;;;;5071863;28;20091;-72
2021/09/22 12:18:25;;;;;;;5.07;1.98;;;25.30;84.00;;;;;;5072056;28;20068;-72
2021/09/22 12:20:53;;;;;;;2.60;1.58;;;23.10;90.10;;;;;;5072029;28;20464;-72
2021/09/22 12:23:33;;;;;;;3.17;1.70;;;23.80;89.40;;;;;;5090713;28;20028;-72
2021/09/22 12:26:15;;;;;;;2.88;1.75;;;26.00;84.20;;;;;;5091356;28;20035;-72
2021/09/22 12:28:43;;;;;;;3.42;1.73;;;24.80;83.80;;;;;;5091408;28;20040;-72
2021/09/22 12:31:17;;;;;;;3.55;1.75;;;25.10;83.70;;;;;;5090952;28;20028;-73
2021/09/22 12:33:44;;;;;;;5.53;1.83;;;24.50;83.00;;;;;;5092207;28;20519;-73
2021/09/22 12:36:19;;;;;;;9.30;2.38;;;24.90;85.40;;;;;;5092405;28;20385;-73
2021/09/22 12:38:52;;;;;;;2.78;1.98;;;25.70;82.10;;;;;;5092074;28;20484;-73
2021/09/22 12:41:21;;;;;;;7.47;2.17;;;25.30;83.00;;;;;;5090952;28;20067;-72
2021/09/22 12:43:56;;;;;;;4.45;1.77;;;26.00;80.90;;;;;;5090497;28;20527;-72
2021/09/22 12:46:22;;;;;;;5.15;1.55;;;26.50;80.40;;;;;;5092142;28;20532;-73
2021/09/22 12:48:48;;;;;;;6.45;2.10;;;24.90;82.10;;;;;;5090718;28;20093;-72
2021/09/22 12:51:20;;;;;;;3.78;2.05;;;25.60;81.00;;;;;;5092322;28;20102;-73